sensor_id;sensor_type;location;lat;lon;timestamp;P1;durP1;ratioP1;P2;durP2;ratioP2
11791;SDS011;5953;52.372;9.918;2023-04-15T00:00:00;4.67;;;3.83;;
11791;SDS011;5953;52.372;9.918;2023-04-15T00:02:28;4.30;;;3.40;;
11791;SDS011;5953;52.372;9.918;2023-04-15T00:04:56;6.20;;;3.50;;
11791;SDS011;5953;52.372;9.918;2023-04-15T00:07:24;5.40;;;3.60;;
11791;SDS011;5953;52.372;9.918;2023-04-15T00:09:51;3.77;;;3.20;;
11791;SDS011;5953;52.372;9.918;2023-04-15T00:12:21;3.70;;;3.30;;
11791;SDS011;5953;52.372;9.918;2023-04-15T00:14:50;4.87;;;3.73;;
11791;SDS011;5953;52.372;9.918;2023-04-15T00:17:18;6.47;;;3.70;;
11791;SDS011;5953;52.372;9.918;2023-04-15T00:19:46;5.30;;;3.57;;
11791;SDS011;5953;52.372;9.918;2023-04-15T00:22:14;3.63;;;3.30;;
11791;SDS011;5953;52.372;9.918;2023-04-15T00:24:42;4.57;;;3.63;;
11791;SDS011;5953;52.372;9.918;2023-04-15T00:27:10;5.77;;;3.57;;
11791;SDS011;5953;52.372;9.918;2023-04-15T00:29:37;5.27;;;3.50;;
11791;SDS011;5953;52.372;9.918;2023-04-15T00:32:07;5.17;;;3.53;;
11791;SDS011;5953;52.372;9.918;2023-04-15T00:34:34;4.47;;;4.00;;
11791;SDS011;5953;52.372;9.918;2023-04-15T00:37:02;4.23;;;3.83;;
11791;SDS011;5953;52.372;9.918;2023-04-15T00:39:30;3.70;;;3.30;;
11791;SDS011;5953;52.372;9.918;2023-04-15T00:41:58;5.67;;;4.17;;
11791;SDS011;5953;52.372;9.918;2023-04-15T00:44:25;3.90;;;3.50;;
11791;SDS011;5953;52.372;9.918;2023-04-15T00:46:54;6.83;;;4.33;;
11791;SDS011;5953;52.372;9.918;2023-04-15T00:49:24;5.13;;;3.57;;
11791;SDS011;5953;52.372;9.918;2023-04-15T00:51:52;4.77;;;3.80;;
11791;SDS011;5953;52.372;9.918;2023-04-15T00:54:20;4.57;;;3.97;;
11791;SDS011;5953;52.372;9.918;2023-04-15T00:56:48;3.97;;;3.60;;
11791;SDS011;5953;52.372;9.918;2023-04-15T00:59:16;5.33;;;4.20;;
11791;SDS011;5953;52.372;9.918;2023-04-15T01:01:44;5.50;;;3.97;;
11791;SDS011;5953;52.372;9.918;2023-04-15T01:04:14;5.00;;;3.57;;
11791;SDS011;5953;52.372;9.918;2023-04-15T01:06:44;4.87;;;3.97;;
11791;SDS011;5953;52.372;9.918;2023-04-15T01:09:12;5.10;;;3.90;;
11791;SDS011;5953;52.372;9.918;2023-04-15T01:11:40;4.20;;;3.80;;
11791;SDS011;5953;52.372;9.918;2023-04-15T01:14:08;5.53;;;4.47;;
11791;SDS011;5953;52.372;9.918;2023-04-15T01:16:36;5.80;;;4.67;;
11791;SDS011;5953;52.372;9.918;2023-04-15T01:19:06;5.70;;;4.40;;
11791;SDS011;5953;52.372;9.918;2023-04-15T01:21:35;5.13;;;4.43;;
11791;SDS011;5953;52.372;9.918;2023-04-15T01:24:07;5.57;;;4.57;;
11791;SDS011;5953;52.372;9.918;2023-04-15T01:26:37;5.50;;;4.70;;
11791;SDS011;5953;52.372;9.918;2023-04-15T01:29:06;7.67;;;4.60;;
11791;SDS011;5953;52.372;9.918;2023-04-15T01:31:34;5.20;;;4.60;;
11791;SDS011;5953;52.372;9.918;2023-04-15T01:34:01;7.73;;;5.43;;
11791;SDS011;5953;52.372;9.918;2023-04-15T01:36:29;5.93;;;5.23;;
11791;SDS011;5953;52.372;9.918;2023-04-15T01:38:57;6.00;;;5.37;;
11791;SDS011;5953;52.372;9.918;2023-04-15T01:41:25;8.63;;;5.63;;
11791;SDS011;5953;52.372;9.918;2023-04-15T01:43:55;5.93;;;5.33;;
11791;SDS011;5953;52.372;9.918;2023-04-15T01:46:23;7.17;;;5.70;;
11791;SDS011;5953;52.372;9.918;2023-04-15T01:48:51;7.47;;;6.07;;
11791;SDS011;5953;52.372;9.918;2023-04-15T01:51:18;8.27;;;5.97;;
11791;SDS011;5953;52.372;9.918;2023-04-15T01:53:47;9.63;;;6.87;;
11791;SDS011;5953;52.372;9.918;2023-04-15T01:56:14;6.70;;;5.33;;
11791;SDS011;5953;52.372;9.918;2023-04-15T01:58:42;9.23;;;6.90;;
11791;SDS011;5953;52.372;9.918;2023-04-15T02:01:12;7.90;;;6.23;;
11791;SDS011;5953;52.372;9.918;2023-04-15T02:03:39;8.63;;;6.40;;
11791;SDS011;5953;52.372;9.918;2023-04-15T02:06:08;7.80;;;6.40;;
11791;SDS011;5953;52.372;9.918;2023-04-15T02:08:35;8.57;;;6.43;;
11791;SDS011;5953;52.372;9.918;2023-04-15T02:11:03;10.57;;;6.87;;
11791;SDS011;5953;52.372;9.918;2023-04-15T02:13:31;10.20;;;7.60;;
11791;SDS011;5953;52.372;9.918;2023-04-15T02:15:59;11.07;;;7.00;;
11791;SDS011;5953;52.372;9.918;2023-04-15T02:18:28;9.80;;;7.57;;
11791;SDS011;5953;52.372;9.918;2023-04-15T02:20:56;10.03;;;7.40;;
11791;SDS011;5953;52.372;9.918;2023-04-15T02:23:24;10.37;;;8.03;;
11791;SDS011;5953;52.372;9.918;2023-04-15T02:25:52;10.57;;;8.20;;
11791;SDS011;5953;52.372;9.918;2023-04-15T02:28:20;11.27;;;8.30;;
11791;SDS011;5953;52.372;9.918;2023-04-15T02:30:48;10.83;;;8.63;;
11791;SDS011;5953;52.372;9.918;2023-04-15T02:33:18;9.33;;;7.67;;
11791;SDS011;5953;52.372;9.918;2023-04-15T02:35:48;10.90;;;7.67;;
11791;SDS011;5953;52.372;9.918;2023-04-15T02:38:16;12.63;;;8.23;;
11791;SDS011;5953;52.372;9.918;2023-04-15T02:40:44;10.77;;;7.83;;
11791;SDS011;5953;52.372;9.918;2023-04-15T02:43:11;10.47;;;7.43;;
11791;SDS011;5953;52.372;9.918;2023-04-15T02:45:39;11.80;;;8.17;;
11791;SDS011;5953;52.372;9.918;2023-04-15T02:48:08;11.73;;;8.40;;
11791;SDS011;5953;52.372;9.918;2023-04-15T02:50:36;12.07;;;9.00;;
11791;SDS011;5953;52.372;9.918;2023-04-15T02:53:07;11.00;;;8.83;;
11791;SDS011;5953;52.372;9.918;2023-04-15T02:55:35;12.30;;;8.13;;
11791;SDS011;5953;52.372;9.918;2023-04-15T02:58:03;10.83;;;8.10;;
11791;SDS011;5953;52.372;9.918;2023-04-15T03:00:31;12.80;;;9.30;;
11791;SDS011;5953;52.372;9.918;2023-04-15T03:03:00;11.00;;;8.20;;
11791;SDS011;5953;52.372;9.918;2023-04-15T03:05:30;11.63;;;9.03;;
11791;SDS011;5953;52.372;9.918;2023-04-15T03:07:57;14.43;;;9.80;;
11791;SDS011;5953;52.372;9.918;2023-04-15T03:10:27;12.27;;;9.30;;
11791;SDS011;5953;52.372;9.918;2023-04-15T03:12:55;12.90;;;9.37;;
11791;SDS011;5953;52.372;9.918;2023-04-15T03:15:23;11.97;;;9.73;;
11791;SDS011;5953;52.372;9.918;2023-04-15T03:17:50;12.00;;;9.40;;
11791;SDS011;5953;52.372;9.918;2023-04-15T03:20:18;14.17;;;10.50;;
11791;SDS011;5953;52.372;9.918;2023-04-15T03:22:46;13.20;;;10.33;;
11791;SDS011;5953;52.372;9.918;2023-04-15T03:25:14;13.87;;;10.77;;
11791;SDS011;5953;52.372;9.918;2023-04-15T03:27:43;13.97;;;10.23;;
11791;SDS011;5953;52.372;9.918;2023-04-15T03:30:11;14.53;;;9.37;;
11791;SDS011;5953;52.372;9.918;2023-04-15T03:32:40;13.10;;;10.50;;
11791;SDS011;5953;52.372;9.918;2023-04-15T03:35:08;13.43;;;10.67;;
11791;SDS011;5953;52.372;9.918;2023-04-15T03:37:36;15.47;;;12.00;;
11791;SDS011;5953;52.372;9.918;2023-04-15T03:40:04;16.00;;;10.30;;
11791;SDS011;5953;52.372;9.918;2023-04-15T03:42:32;14.20;;;10.83;;
11791;SDS011;5953;52.372;9.918;2023-04-15T03:45:01;14.30;;;10.67;;
11791;SDS011;5953;52.372;9.918;2023-04-15T03:47:29;15.23;;;11.90;;
11791;SDS011;5953;52.372;9.918;2023-04-15T03:49:57;15.70;;;11.90;;
11791;SDS011;5953;52.372;9.918;2023-04-15T03:52:25;14.23;;;10.83;;
11791;SDS011;5953;52.372;9.918;2023-04-15T03:54:53;15.00;;;11.33;;
11791;SDS011;5953;52.372;9.918;2023-04-15T03:57:21;17.70;;;12.20;;
11791;SDS011;5953;52.372;9.918;2023-04-15T03:59:48;17.53;;;12.60;;
11791;SDS011;5953;52.372;9.918;2023-04-15T04:02:17;17.97;;;12.63;;
11791;SDS011;5953;52.372;9.918;2023-04-15T04:04:45;17.80;;;12.70;;
11791;SDS011;5953;52.372;9.918;2023-04-15T04:07:14;15.87;;;12.67;;
11791;SDS011;5953;52.372;9.918;2023-04-15T04:09:42;17.57;;;13.17;;
11791;SDS011;5953;52.372;9.918;2023-04-15T04:12:12;17.37;;;12.67;;
11791;SDS011;5953;52.372;9.918;2023-04-15T04:14:40;19.80;;;13.03;;
11791;SDS011;5953;52.372;9.918;2023-04-15T04:17:08;19.27;;;13.87;;
11791;SDS011;5953;52.372;9.918;2023-04-15T04:19:37;23.00;;;14.43;;
11791;SDS011;5953;52.372;9.918;2023-04-15T04:22:04;19.87;;;13.73;;
11791;SDS011;5953;52.372;9.918;2023-04-15T04:24:32;18.37;;;14.23;;
11791;SDS011;5953;52.372;9.918;2023-04-15T04:27:00;20.13;;;15.40;;
11791;SDS011;5953;52.372;9.918;2023-04-15T04:29:28;19.03;;;13.53;;
11791;SDS011;5953;52.372;9.918;2023-04-15T04:31:56;22.10;;;14.70;;
11791;SDS011;5953;52.372;9.918;2023-04-15T04:34:23;23.47;;;15.23;;
11791;SDS011;5953;52.372;9.918;2023-04-15T04:36:53;19.63;;;14.87;;
11791;SDS011;5953;52.372;9.918;2023-04-15T04:39:20;20.87;;;15.17;;
11791;SDS011;5953;52.372;9.918;2023-04-15T04:41:48;20.87;;;14.23;;
11791;SDS011;5953;52.372;9.918;2023-04-15T04:44:17;24.43;;;15.80;;
11791;SDS011;5953;52.372;9.918;2023-04-15T04:46:45;21.57;;;14.73;;
11791;SDS011;5953;52.372;9.918;2023-04-15T04:49:12;20.27;;;15.00;;
11791;SDS011;5953;52.372;9.918;2023-04-15T04:51:40;22.13;;;15.73;;
11791;SDS011;5953;52.372;9.918;2023-04-15T04:54:09;21.97;;;15.60;;
11791;SDS011;5953;52.372;9.918;2023-04-15T04:56:37;20.60;;;14.83;;
11791;SDS011;5953;52.372;9.918;2023-04-15T04:59:05;22.03;;;15.43;;
11791;SDS011;5953;52.372;9.918;2023-04-15T05:01:33;21.03;;;15.30;;
11791;SDS011;5953;52.372;9.918;2023-04-15T05:04:01;20.33;;;15.20;;
11791;SDS011;5953;52.372;9.918;2023-04-15T05:06:30;22.00;;;15.13;;
11791;SDS011;5953;52.372;9.918;2023-04-15T05:08:58;23.03;;;15.67;;
11791;SDS011;5953;52.372;9.918;2023-04-15T05:11:28;24.10;;;15.40;;
11791;SDS011;5953;52.372;9.918;2023-04-15T05:13:55;20.07;;;15.53;;
11791;SDS011;5953;52.372;9.918;2023-04-15T05:16:24;21.33;;;15.83;;
11791;SDS011;5953;52.372;9.918;2023-04-15T05:18:52;23.37;;;16.73;;
11791;SDS011;5953;52.372;9.918;2023-04-15T05:21:20;20.57;;;14.93;;
11791;SDS011;5953;52.372;9.918;2023-04-15T05:23:48;24.17;;;16.10;;
11791;SDS011;5953;52.372;9.918;2023-04-15T05:26:16;22.30;;;15.23;;
11791;SDS011;5953;52.372;9.918;2023-04-15T05:28:45;19.33;;;14.83;;
11791;SDS011;5953;52.372;9.918;2023-04-15T05:31:13;23.77;;;16.90;;
11791;SDS011;5953;52.372;9.918;2023-04-15T05:33:41;21.30;;;14.50;;
11791;SDS011;5953;52.372;9.918;2023-04-15T05:36:09;22.33;;;14.63;;
11791;SDS011;5953;52.372;9.918;2023-04-15T05:38:37;19.97;;;14.40;;
11791;SDS011;5953;52.372;9.918;2023-04-15T05:41:05;21.10;;;14.60;;
11791;SDS011;5953;52.372;9.918;2023-04-15T05:43:33;19.17;;;13.23;;
11791;SDS011;5953;52.372;9.918;2023-04-15T05:46:02;21.23;;;14.77;;
11791;SDS011;5953;52.372;9.918;2023-04-15T05:48:30;20.90;;;14.07;;
11791;SDS011;5953;52.372;9.918;2023-04-15T05:50:58;20.27;;;13.77;;
11791;SDS011;5953;52.372;9.918;2023-04-15T05:53:26;17.13;;;13.13;;
11791;SDS011;5953;52.372;9.918;2023-04-15T05:55:54;19.73;;;14.13;;
11791;SDS011;5953;52.372;9.918;2023-04-15T05:58:22;22.73;;;14.37;;
11791;SDS011;5953;52.372;9.918;2023-04-15T06:00:50;17.47;;;13.13;;
11791;SDS011;5953;52.372;9.918;2023-04-15T06:03:19;17.40;;;13.50;;
11791;SDS011;5953;52.372;9.918;2023-04-15T06:05:48;17.70;;;13.17;;
11791;SDS011;5953;52.372;9.918;2023-04-15T06:08:16;19.17;;;13.83;;
11791;SDS011;5953;52.372;9.918;2023-04-15T06:10:44;19.50;;;12.70;;
11791;SDS011;5953;52.372;9.918;2023-04-15T06:13:12;18.70;;;13.23;;
11791;SDS011;5953;52.372;9.918;2023-04-15T06:15:40;16.90;;;12.47;;
11791;SDS011;5953;52.372;9.918;2023-04-15T06:18:07;15.83;;;12.37;;
11791;SDS011;5953;52.372;9.918;2023-04-15T06:20:36;17.63;;;13.37;;
11791;SDS011;5953;52.372;9.918;2023-04-15T06:23:04;16.37;;;11.33;;
11791;SDS011;5953;52.372;9.918;2023-04-15T06:25:32;17.17;;;12.00;;
11791;SDS011;5953;52.372;9.918;2023-04-15T06:28:00;14.33;;;10.57;;
11791;SDS011;5953;52.372;9.918;2023-04-15T06:30:27;15.23;;;11.00;;
11791;SDS011;5953;52.372;9.918;2023-04-15T06:32:55;14.03;;;10.43;;
11791;SDS011;5953;52.372;9.918;2023-04-15T06:35:24;16.40;;;11.23;;
11791;SDS011;5953;52.372;9.918;2023-04-15T06:37:54;14.57;;;10.93;;
11791;SDS011;5953;52.372;9.918;2023-04-15T06:40:21;13.83;;;9.70;;
11791;SDS011;5953;52.372;9.918;2023-04-15T06:42:49;13.30;;;8.83;;
11791;SDS011;5953;52.372;9.918;2023-04-15T06:45:17;13.07;;;9.80;;
11791;SDS011;5953;52.372;9.918;2023-04-15T06:47:45;12.70;;;9.80;;
11791;SDS011;5953;52.372;9.918;2023-04-15T06:50:12;12.13;;;8.93;;
11791;SDS011;5953;52.372;9.918;2023-04-15T06:52:40;15.70;;;8.97;;
11791;SDS011;5953;52.372;9.918;2023-04-15T06:55:09;11.13;;;7.97;;
11791;SDS011;5953;52.372;9.918;2023-04-15T06:57:40;10.03;;;8.13;;
11791;SDS011;5953;52.372;9.918;2023-04-15T07:00:09;10.03;;;7.67;;
11791;SDS011;5953;52.372;9.918;2023-04-15T07:02:37;11.07;;;8.07;;
11791;SDS011;5953;52.372;9.918;2023-04-15T07:05:05;11.37;;;7.77;;
11791;SDS011;5953;52.372;9.918;2023-04-15T07:07:33;11.03;;;7.63;;
11791;SDS011;5953;52.372;9.918;2023-04-15T07:10:02;9.87;;;7.40;;
11791;SDS011;5953;52.372;9.918;2023-04-15T07:12:31;9.10;;;7.00;;
11791;SDS011;5953;52.372;9.918;2023-04-15T07:15:01;9.87;;;6.80;;
11791;SDS011;5953;52.372;9.918;2023-04-15T07:17:28;10.50;;;8.40;;
11791;SDS011;5953;52.372;9.918;2023-04-15T07:19:56;9.20;;;7.30;;
11791;SDS011;5953;52.372;9.918;2023-04-15T07:22:24;9.87;;;7.33;;
11791;SDS011;5953;52.372;9.918;2023-04-15T07:24:52;9.30;;;7.00;;
11791;SDS011;5953;52.372;9.918;2023-04-15T07:27:20;9.10;;;6.83;;
11791;SDS011;5953;52.372;9.918;2023-04-15T07:29:49;8.97;;;6.73;;
11791;SDS011;5953;52.372;9.918;2023-04-15T07:32:18;8.30;;;6.43;;
11791;SDS011;5953;52.372;9.918;2023-04-15T07:34:46;8.17;;;6.53;;
11791;SDS011;5953;52.372;9.918;2023-04-15T07:37:14;6.90;;;5.90;;
11791;SDS011;5953;52.372;9.918;2023-04-15T07:39:42;7.17;;;5.47;;
11791;SDS011;5953;52.372;9.918;2023-04-15T07:42:10;7.97;;;5.63;;
11791;SDS011;5953;52.372;9.918;2023-04-15T07:44:39;6.73;;;5.73;;
11791;SDS011;5953;52.372;9.918;2023-04-15T07:47:08;5.27;;;4.53;;
11791;SDS011;5953;52.372;9.918;2023-04-15T07:49:37;6.27;;;5.27;;
11791;SDS011;5953;52.372;9.918;2023-04-15T07:52:05;6.77;;;5.03;;
11791;SDS011;5953;52.372;9.918;2023-04-15T07:54:34;5.60;;;4.40;;
11791;SDS011;5953;52.372;9.918;2023-04-15T07:57:02;5.97;;;4.70;;
11791;SDS011;5953;52.372;9.918;2023-04-15T07:59:31;7.00;;;5.30;;
11791;SDS011;5953;52.372;9.918;2023-04-15T08:02:00;5.60;;;4.57;;
11791;SDS011;5953;52.372;9.918;2023-04-15T08:04:29;5.97;;;4.30;;
11791;SDS011;5953;52.372;9.918;2023-04-15T08:06:57;4.90;;;4.20;;
11791;SDS011;5953;52.372;9.918;2023-04-15T08:09:25;5.90;;;4.20;;
11791;SDS011;5953;52.372;9.918;2023-04-15T08:11:53;4.73;;;4.27;;
11791;SDS011;5953;52.372;9.918;2023-04-15T08:14:21;4.67;;;3.87;;
11791;SDS011;5953;52.372;9.918;2023-04-15T08:16:50;5.13;;;3.70;;
11791;SDS011;5953;52.372;9.918;2023-04-15T08:19:18;6.03;;;4.00;;
11791;SDS011;5953;52.372;9.918;2023-04-15T08:21:48;4.87;;;3.70;;
11791;SDS011;5953;52.372;9.918;2023-04-15T08:24:16;4.97;;;4.10;;
11791;SDS011;5953;52.372;9.918;2023-04-15T08:26:44;6.03;;;3.80;;
11791;SDS011;5953;52.372;9.918;2023-04-15T08:29:13;4.53;;;3.80;;
11791;SDS011;5953;52.372;9.918;2023-04-15T08:31:41;5.43;;;3.87;;
11791;SDS011;5953;52.372;9.918;2023-04-15T08:34:10;4.00;;;3.50;;
11791;SDS011;5953;52.372;9.918;2023-04-15T08:36:38;4.80;;;3.93;;
11791;SDS011;5953;52.372;9.918;2023-04-15T08:39:07;4.03;;;3.40;;
11791;SDS011;5953;52.372;9.918;2023-04-15T08:41:38;4.00;;;3.20;;
11791;SDS011;5953;52.372;9.918;2023-04-15T08:44:07;3.70;;;3.30;;
11791;SDS011;5953;52.372;9.918;2023-04-15T08:46:36;4.53;;;3.40;;
11791;SDS011;5953;52.372;9.918;2023-04-15T08:49:05;3.53;;;3.13;;
11791;SDS011;5953;52.372;9.918;2023-04-15T08:51:37;4.07;;;3.00;;
11791;SDS011;5953;52.372;9.918;2023-04-15T08:54:05;4.83;;;3.60;;
11791;SDS011;5953;52.372;9.918;2023-04-15T08:56:37;3.47;;;2.80;;
11791;SDS011;5953;52.372;9.918;2023-04-15T08:59:05;3.57;;;3.00;;
11791;SDS011;5953;52.372;9.918;2023-04-15T09:01:33;4.73;;;3.53;;
11791;SDS011;5953;52.372;9.918;2023-04-15T09:04:03;3.77;;;3.40;;
11791;SDS011;5953;52.372;9.918;2023-04-15T09:06:33;4.07;;;3.53;;
11791;SDS011;5953;52.372;9.918;2023-04-15T09:09:01;4.57;;;3.37;;
11791;SDS011;5953;52.372;9.918;2023-04-15T09:11:29;4.50;;;3.20;;
11791;SDS011;5953;52.372;9.918;2023-04-15T09:13:58;4.37;;;3.77;;
11791;SDS011;5953;52.372;9.918;2023-04-15T09:16:26;4.67;;;3.70;;
11791;SDS011;5953;52.372;9.918;2023-04-15T09:18:54;5.67;;;4.10;;
11791;SDS011;5953;52.372;9.918;2023-04-15T09:21:22;5.17;;;3.70;;
11791;SDS011;5953;52.372;9.918;2023-04-15T09:23:54;5.17;;;3.70;;
11791;SDS011;5953;52.372;9.918;2023-04-15T09:26:33;6.20;;;4.20;;
11791;SDS011;5953;52.372;9.918;2023-04-15T09:29:07;6.17;;;4.93;;
11791;SDS011;5953;52.372;9.918;2023-04-15T09:31:38;7.50;;;4.83;;
11791;SDS011;5953;52.372;9.918;2023-04-15T09:34:08;6.33;;;4.67;;
11791;SDS011;5953;52.372;9.918;2023-04-15T09:36:52;8.07;;;5.43;;
11791;SDS011;5953;52.372;9.918;2023-04-15T09:39:22;6.00;;;5.37;;
11791;SDS011;5953;52.372;9.918;2023-04-15T09:42:03;7.13;;;5.03;;
11791;SDS011;5953;52.372;9.918;2023-04-15T09:44:34;8.00;;;5.63;;
11791;SDS011;5953;52.372;9.918;2023-04-15T09:47:01;7.70;;;5.53;;
11791;SDS011;5953;52.372;9.918;2023-04-15T09:49:29;7.77;;;5.80;;
11791;SDS011;5953;52.372;9.918;2023-04-15T09:51:59;9.37;;;6.53;;
11791;SDS011;5953;52.372;9.918;2023-04-15T09:54:32;11.07;;;7.30;;
11791;SDS011;5953;52.372;9.918;2023-04-15T09:57:05;10.27;;;7.07;;
11791;SDS011;5953;52.372;9.918;2023-04-15T09:59:35;11.73;;;8.17;;
11791;SDS011;5953;52.372;9.918;2023-04-15T10:02:03;11.93;;;8.33;;
11791;SDS011;5953;52.372;9.918;2023-04-15T10:04:34;10.70;;;7.30;;
11791;SDS011;5953;52.372;9.918;2023-04-15T10:07:04;13.53;;;8.93;;
11791;SDS011;5953;52.372;9.918;2023-04-15T10:09:32;11.87;;;8.73;;
11791;SDS011;5953;52.372;9.918;2023-04-15T10:12:02;12.30;;;9.47;;
11791;SDS011;5953;52.372;9.918;2023-04-15T10:14:31;15.73;;;10.50;;
11791;SDS011;5953;52.372;9.918;2023-04-15T10:17:02;14.77;;;10.50;;
11791;SDS011;5953;52.372;9.918;2023-04-15T10:19:32;14.27;;;10.33;;
11791;SDS011;5953;52.372;9.918;2023-04-15T10:22:03;13.40;;;10.00;;
11791;SDS011;5953;52.372;9.918;2023-04-15T10:24:31;17.27;;;11.47;;
11791;SDS011;5953;52.372;9.918;2023-04-15T10:26:59;18.43;;;12.03;;
11791;SDS011;5953;52.372;9.918;2023-04-15T10:29:29;16.77;;;11.83;;
11791;SDS011;5953;52.372;9.918;2023-04-15T10:31:59;19.60;;;13.07;;
11791;SDS011;5953;52.372;9.918;2023-04-15T10:34:29;17.63;;;13.00;;
11791;SDS011;5953;52.372;9.918;2023-04-15T10:37:00;19.47;;;14.00;;
11791;SDS011;5953;52.372;9.918;2023-04-15T10:39:39;21.93;;;13.67;;
11791;SDS011;5953;52.372;9.918;2023-04-15T10:42:08;22.23;;;14.57;;
11791;SDS011;5953;52.372;9.918;2023-04-15T10:44:37;21.60;;;14.43;;
11791;SDS011;5953;52.372;9.918;2023-04-15T10:47:10;22.37;;;15.33;;
11791;SDS011;5953;52.372;9.918;2023-04-15T10:49:42;24.07;;;15.80;;
11791;SDS011;5953;52.372;9.918;2023-04-15T10:52:11;20.73;;;15.20;;
11791;SDS011;5953;52.372;9.918;2023-04-15T10:54:42;25.37;;;15.73;;
11791;SDS011;5953;52.372;9.918;2023-04-15T10:57:14;28.33;;;17.03;;
11791;SDS011;5953;52.372;9.918;2023-04-15T10:59:59;26.80;;;17.50;;
11791;SDS011;5953;52.372;9.918;2023-04-15T11:02:39;26.80;;;16.97;;
11791;SDS011;5953;52.372;9.918;2023-04-15T11:05:09;26.77;;;16.83;;
11791;SDS011;5953;52.372;9.918;2023-04-15T11:07:38;26.93;;;18.70;;
11791;SDS011;5953;52.372;9.918;2023-04-15T11:13:24;28.30;;;18.33;;
11791;SDS011;5953;52.372;9.918;2023-04-15T11:15:54;31.13;;;20.87;;
11791;SDS011;5953;52.372;9.918;2023-04-15T11:18:32;29.80;;;20.60;;
11791;SDS011;5953;52.372;9.918;2023-04-15T11:21:01;34.10;;;20.67;;
11791;SDS011;5953;52.372;9.918;2023-04-15T11:23:32;35.77;;;22.70;;
11791;SDS011;5953;52.372;9.918;2023-04-15T11:26:02;35.27;;;22.13;;
11791;SDS011;5953;52.372;9.918;2023-04-15T11:28:34;38.83;;;23.97;;
11791;SDS011;5953;52.372;9.918;2023-04-15T11:31:05;37.97;;;24.03;;
11791;SDS011;5953;52.372;9.918;2023-04-15T11:33:37;33.90;;;21.60;;
11791;SDS011;5953;52.372;9.918;2023-04-15T11:36:11;36.60;;;23.00;;
11791;SDS011;5953;52.372;9.918;2023-04-15T11:38:41;51.13;;;29.37;;
11791;SDS011;5953;52.372;9.918;2023-04-15T11:41:09;44.97;;;28.03;;
11791;SDS011;5953;52.372;9.918;2023-04-15T11:43:37;42.97;;;28.17;;
11791;SDS011;5953;52.372;9.918;2023-04-15T11:46:05;44.53;;;26.33;;
11791;SDS011;5953;52.372;9.918;2023-04-15T11:48:34;37.37;;;23.73;;
11791;SDS011;5953;52.372;9.918;2023-04-15T11:51:08;36.23;;;24.10;;
11791;SDS011;5953;52.372;9.918;2023-04-15T11:53:36;38.23;;;24.93;;
11791;SDS011;5953;52.372;9.918;2023-04-15T11:56:07;38.50;;;23.37;;
11791;SDS011;5953;52.372;9.918;2023-04-15T11:58:35;41.67;;;25.57;;
11791;SDS011;5953;52.372;9.918;2023-04-15T12:01:05;39.20;;;24.53;;
11791;SDS011;5953;52.372;9.918;2023-04-15T12:03:37;44.17;;;26.20;;
11791;SDS011;5953;52.372;9.918;2023-04-15T12:06:08;39.40;;;24.20;;
11791;SDS011;5953;52.372;9.918;2023-04-15T12:08:49;39.13;;;25.30;;
11791;SDS011;5953;52.372;9.918;2023-04-15T12:14:09;46.30;;;26.60;;
11791;SDS011;5953;52.372;9.918;2023-04-15T12:16:40;43.10;;;26.90;;
11791;SDS011;5953;52.372;9.918;2023-04-15T12:19:17;44.23;;;26.23;;
11791;SDS011;5953;52.372;9.918;2023-04-15T12:21:47;44.30;;;27.17;;
11791;SDS011;5953;52.372;9.918;2023-04-15T12:24:18;43.17;;;26.73;;
11791;SDS011;5953;52.372;9.918;2023-04-15T12:26:48;41.50;;;27.07;;
11791;SDS011;5953;52.372;9.918;2023-04-15T12:29:18;44.83;;;27.33;;
11791;SDS011;5953;52.372;9.918;2023-04-15T12:31:50;42.23;;;26.37;;
11791;SDS011;5953;52.372;9.918;2023-04-15T12:34:28;40.33;;;26.80;;
11791;SDS011;5953;52.372;9.918;2023-04-15T12:36:58;42.90;;;26.97;;
11791;SDS011;5953;52.372;9.918;2023-04-15T12:39:27;41.97;;;26.27;;
11791;SDS011;5953;52.372;9.918;2023-04-15T12:41:56;41.73;;;26.20;;
11791;SDS011;5953;52.372;9.918;2023-04-15T12:44:25;42.43;;;27.03;;
11791;SDS011;5953;52.372;9.918;2023-04-15T12:46:53;42.83;;;27.67;;
11791;SDS011;5953;52.372;9.918;2023-04-15T12:49:22;43.27;;;27.40;;
11791;SDS011;5953;52.372;9.918;2023-04-15T12:51:52;43.80;;;27.60;;
11791;SDS011;5953;52.372;9.918;2023-04-15T12:54:21;42.27;;;26.70;;
11791;SDS011;5953;52.372;9.918;2023-04-15T12:56:50;40.40;;;25.97;;
11791;SDS011;5953;52.372;9.918;2023-04-15T12:59:19;44.90;;;29.67;;
11791;SDS011;5953;52.372;9.918;2023-04-15T13:01:49;42.07;;;27.27;;
11791;SDS011;5953;52.372;9.918;2023-04-15T13:04:17;38.57;;;25.40;;
11791;SDS011;5953;52.372;9.918;2023-04-15T13:06:46;41.20;;;26.10;;
11791;SDS011;5953;52.372;9.918;2023-04-15T13:09:15;39.27;;;26.53;;
11791;SDS011;5953;52.372;9.918;2023-04-15T13:11:43;39.67;;;27.33;;
11791;SDS011;5953;52.372;9.918;2023-04-15T13:14:11;42.67;;;25.97;;
11791;SDS011;5953;52.372;9.918;2023-04-15T13:16:39;40.20;;;26.50;;
11791;SDS011;5953;52.372;9.918;2023-04-15T13:19:07;37.83;;;26.13;;
11791;SDS011;5953;52.372;9.918;2023-04-15T13:21:34;41.93;;;25.63;;
11791;SDS011;5953;52.372;9.918;2023-04-15T13:24:03;37.83;;;25.30;;
11791;SDS011;5953;52.372;9.918;2023-04-15T13:26:34;37.70;;;25.20;;
11791;SDS011;5953;52.372;9.918;2023-04-15T13:29:02;36.33;;;23.97;;
11791;SDS011;5953;52.372;9.918;2023-04-15T13:31:30;34.97;;;23.63;;
11791;SDS011;5953;52.372;9.918;2023-04-15T13:34:00;37.03;;;23.50;;
11791;SDS011;5953;52.372;9.918;2023-04-15T13:36:28;33.50;;;22.27;;
11791;SDS011;5953;52.372;9.918;2023-04-15T13:38:56;36.57;;;23.37;;
11791;SDS011;5953;52.372;9.918;2023-04-15T13:41:25;31.83;;;21.87;;
11791;SDS011;5953;52.372;9.918;2023-04-15T13:43:54;36.03;;;24.30;;
11791;SDS011;5953;52.372;9.918;2023-04-15T13:46:23;37.93;;;24.87;;
11791;SDS011;5953;52.372;9.918;2023-04-15T13:48:52;33.27;;;22.97;;
11791;SDS011;5953;52.372;9.918;2023-04-15T13:51:19;37.77;;;22.77;;
11791;SDS011;5953;52.372;9.918;2023-04-15T13:53:47;31.03;;;21.33;;
11791;SDS011;5953;52.372;9.918;2023-04-15T13:56:15;33.13;;;23.50;;
11791;SDS011;5953;52.372;9.918;2023-04-15T13:58:42;31.27;;;21.43;;
11791;SDS011;5953;52.372;9.918;2023-04-15T14:01:12;30.90;;;20.60;;
11791;SDS011;5953;52.372;9.918;2023-04-15T14:03:40;27.17;;;19.73;;
11791;SDS011;5953;52.372;9.918;2023-04-15T14:06:08;29.60;;;20.00;;
11791;SDS011;5953;52.372;9.918;2023-04-15T14:08:36;27.83;;;20.30;;
11791;SDS011;5953;52.372;9.918;2023-04-15T14:11:05;26.80;;;21.80;;
11791;SDS011;5953;52.372;9.918;2023-04-15T14:13:33;26.87;;;20.63;;
11791;SDS011;5953;52.372;9.918;2023-04-15T14:16:00;28.57;;;20.33;;
11791;SDS011;5953;52.372;9.918;2023-04-15T14:18:30;25.13;;;19.60;;
11791;SDS011;5953;52.372;9.918;2023-04-15T14:20:59;24.17;;;18.63;;
11791;SDS011;5953;52.372;9.918;2023-04-15T14:23:27;24.53;;;18.47;;
11791;SDS011;5953;52.372;9.918;2023-04-15T14:25:55;23.50;;;18.17;;
11791;SDS011;5953;52.372;9.918;2023-04-15T14:28:23;21.27;;;17.77;;
11791;SDS011;5953;52.372;9.918;2023-04-15T14:30:51;21.43;;;18.47;;
11791;SDS011;5953;52.372;9.918;2023-04-15T14:33:19;24.80;;;18.87;;
11791;SDS011;5953;52.372;9.918;2023-04-15T14:35:48;24.43;;;18.93;;
11791;SDS011;5953;52.372;9.918;2023-04-15T14:38:16;24.27;;;19.03;;
11791;SDS011;5953;52.372;9.918;2023-04-15T14:40:43;24.67;;;18.57;;
11791;SDS011;5953;52.372;9.918;2023-04-15T14:43:11;25.17;;;18.50;;
11791;SDS011;5953;52.372;9.918;2023-04-15T14:45:39;22.07;;;16.97;;
11791;SDS011;5953;52.372;9.918;2023-04-15T14:48:10;22.90;;;17.23;;
11791;SDS011;5953;52.372;9.918;2023-04-15T14:50:38;23.07;;;17.37;;
11791;SDS011;5953;52.372;9.918;2023-04-15T14:53:07;22.20;;;16.40;;
11791;SDS011;5953;52.372;9.918;2023-04-15T14:55:35;22.00;;;17.03;;
11791;SDS011;5953;52.372;9.918;2023-04-15T14:58:03;20.37;;;17.13;;
11791;SDS011;5953;52.372;9.918;2023-04-15T15:00:33;24.07;;;17.10;;